sensor_id;sensor_type;location;lat;lon;timestamp;P1;durP1;ratioP1;P2;durP2;ratioP2
12267;SDS011;6196;48.398;11.736;2024-02-04T00:02:17;3.07;;;2.87;;
12267;SDS011;6196;48.398;11.736;2024-02-04T00:04:49;2.80;;;2.60;;
12267;SDS011;6196;48.398;11.736;2024-02-04T00:07:16;3.40;;;2.80;;
12267;SDS011;6196;48.398;11.736;2024-02-04T00:09:43;3.07;;;2.77;;
12267;SDS011;6196;48.398;11.736;2024-02-04T00:12:10;3.23;;;2.63;;
12267;SDS011;6196;48.398;11.736;2024-02-04T00:14:37;2.80;;;2.50;;
12267;SDS011;6196;48.398;11.736;2024-02-04T00:17:04;2.77;;;2.40;;
12267;SDS011;6196;48.398;11.736;2024-02-04T00:19:31;2.80;;;2.57;;
12267;SDS011;6196;48.398;11.736;2024-02-04T00:21:58;2.93;;;2.63;;
12267;SDS011;6196;48.398;11.736;2024-02-04T00:24:25;3.17;;;2.50;;
12267;SDS011;6196;48.398;11.736;2024-02-04T00:26:52;2.60;;;2.40;;
12267;SDS011;6196;48.398;11.736;2024-02-04T00:29:19;3.00;;;2.80;;
12267;SDS011;6196;48.398;11.736;2024-02-04T00:31:46;2.90;;;2.60;;
12267;SDS011;6196;48.398;11.736;2024-02-04T00:34:13;3.43;;;3.13;;
12267;SDS011;6196;48.398;11.736;2024-02-04T00:36:40;3.47;;;2.93;;
12267;SDS011;6196;48.398;11.736;2024-02-04T00:39:07;3.47;;;3.17;;
12267;SDS011;6196;48.398;11.736;2024-02-04T00:41:35;3.43;;;2.90;;
12267;SDS011;6196;48.398;11.736;2024-02-04T00:44:01;4.10;;;3.70;;
12267;SDS011;6196;48.398;11.736;2024-02-04T00:46:29;4.03;;;3.53;;
12267;SDS011;6196;48.398;11.736;2024-02-04T00:48:55;3.67;;;3.37;;
12267;SDS011;6196;48.398;11.736;2024-02-04T00:51:23;4.50;;;4.10;;
12267;SDS011;6196;48.398;11.736;2024-02-04T00:53:50;3.90;;;3.60;;
12267;SDS011;6196;48.398;11.736;2024-02-04T00:56:16;3.97;;;3.43;;
12267;SDS011;6196;48.398;11.736;2024-02-04T00:58:43;5.27;;;4.03;;
12267;SDS011;6196;48.398;11.736;2024-02-04T01:01:11;4.30;;;3.90;;
12267;SDS011;6196;48.398;11.736;2024-02-04T01:03:38;3.90;;;3.40;;
12267;SDS011;6196;48.398;11.736;2024-02-04T01:06:06;4.20;;;3.80;;
12267;SDS011;6196;48.398;11.736;2024-02-04T01:08:32;4.43;;;3.60;;
12267;SDS011;6196;48.398;11.736;2024-02-04T01:11:01;4.03;;;3.57;;
12267;SDS011;6196;48.398;11.736;2024-02-04T01:13:28;4.17;;;3.77;;
12267;SDS011;6196;48.398;11.736;2024-02-04T01:15:54;3.80;;;3.33;;
12267;SDS011;6196;48.398;11.736;2024-02-04T01:18:21;3.43;;;3.13;;
12267;SDS011;6196;48.398;11.736;2024-02-04T01:20:48;3.70;;;3.40;;
12267;SDS011;6196;48.398;11.736;2024-02-04T01:23:16;3.20;;;2.90;;
12267;SDS011;6196;48.398;11.736;2024-02-04T01:25:46;3.73;;;3.10;;
12267;SDS011;6196;48.398;11.736;2024-02-04T01:28:13;3.17;;;2.87;;
12267;SDS011;6196;48.398;11.736;2024-02-04T01:30:40;3.80;;;3.50;;
12267;SDS011;6196;48.398;11.736;2024-02-04T01:33:07;3.30;;;3.00;;
12267;SDS011;6196;48.398;11.736;2024-02-04T01:35:34;2.77;;;2.50;;
12267;SDS011;6196;48.398;11.736;2024-02-04T01:38:01;3.10;;;2.80;;
12267;SDS011;6196;48.398;11.736;2024-02-04T01:40:28;3.10;;;2.80;;
12267;SDS011;6196;48.398;11.736;2024-02-04T01:42:55;3.40;;;3.00;;
12267;SDS011;6196;48.398;11.736;2024-02-04T01:45:22;3.00;;;2.70;;
12267;SDS011;6196;48.398;11.736;2024-02-04T01:47:51;2.87;;;2.67;;
12267;SDS011;6196;48.398;11.736;2024-02-04T01:50:19;3.30;;;3.00;;
12267;SDS011;6196;48.398;11.736;2024-02-04T01:52:47;3.20;;;2.90;;
12267;SDS011;6196;48.398;11.736;2024-02-04T01:55:14;3.80;;;3.07;;
12267;SDS011;6196;48.398;11.736;2024-02-04T01:57:41;2.80;;;2.60;;
12267;SDS011;6196;48.398;11.736;2024-02-04T02:00:09;3.37;;;3.07;;
12267;SDS011;6196;48.398;11.736;2024-02-04T02:02:38;3.33;;;3.03;;
12267;SDS011;6196;48.398;11.736;2024-02-04T02:05:07;3.40;;;3.10;;
12267;SDS011;6196;48.398;11.736;2024-02-04T02:07:35;3.13;;;2.93;;
12267;SDS011;6196;48.398;11.736;2024-02-04T02:10:02;3.23;;;2.93;;
12267;SDS011;6196;48.398;11.736;2024-02-04T02:12:36;3.77;;;3.43;;
12267;SDS011;6196;48.398;11.736;2024-02-04T02:15:14;3.87;;;3.57;;
12267;SDS011;6196;48.398;11.736;2024-02-04T02:17:55;3.63;;;3.20;;
12267;SDS011;6196;48.398;11.736;2024-02-04T02:26:40;4.10;;;3.70;;
12267;SDS011;6196;48.398;11.736;2024-02-04T02:29:07;4.80;;;4.40;;
12267;SDS011;6196;48.398;11.736;2024-02-04T02:31:35;4.47;;;4.07;;
12267;SDS011;6196;48.398;11.736;2024-02-04T02:34:14;4.43;;;4.03;;
12267;SDS011;6196;48.398;11.736;2024-02-04T02:37:04;4.63;;;3.80;;
12267;SDS011;6196;48.398;11.736;2024-02-04T02:39:42;4.57;;;4.17;;
12267;SDS011;6196;48.398;11.736;2024-02-04T02:42:16;4.60;;;4.17;;
12267;SDS011;6196;48.398;11.736;2024-02-04T02:44:44;4.47;;;4.13;;
12267;SDS011;6196;48.398;11.736;2024-02-04T02:47:12;4.43;;;3.93;;
12267;SDS011;6196;48.398;11.736;2024-02-04T02:49:41;4.23;;;3.83;;
12267;SDS011;6196;48.398;11.736;2024-02-04T02:52:08;3.93;;;3.53;;
12267;SDS011;6196;48.398;11.736;2024-02-04T02:54:35;3.97;;;3.30;;
12267;SDS011;6196;48.398;11.736;2024-02-04T02:57:02;3.70;;;3.40;;
12267;SDS011;6196;48.398;11.736;2024-02-04T02:59:29;3.60;;;3.30;;
12267;SDS011;6196;48.398;11.736;2024-02-04T03:01:57;3.63;;;3.33;;
12267;SDS011;6196;48.398;11.736;2024-02-04T03:04:24;4.10;;;3.70;;
12267;SDS011;6196;48.398;11.736;2024-02-04T03:06:51;4.20;;;3.80;;
12267;SDS011;6196;48.398;11.736;2024-02-04T03:09:18;3.87;;;3.57;;
12267;SDS011;6196;48.398;11.736;2024-02-04T03:11:44;3.80;;;3.37;;
12267;SDS011;6196;48.398;11.736;2024-02-04T03:14:14;3.87;;;3.57;;
12267;SDS011;6196;48.398;11.736;2024-02-04T03:16:45;3.90;;;3.50;;
12267;SDS011;6196;48.398;11.736;2024-02-04T03:19:12;3.50;;;3.20;;
12267;SDS011;6196;48.398;11.736;2024-02-04T03:21:39;3.37;;;3.07;;
12267;SDS011;6196;48.398;11.736;2024-02-04T03:24:06;3.43;;;3.13;;
12267;SDS011;6196;48.398;11.736;2024-02-04T03:26:33;3.50;;;3.13;;
12267;SDS011;6196;48.398;11.736;2024-02-04T03:29:00;3.53;;;3.23;;
12267;SDS011;6196;48.398;11.736;2024-02-04T03:31:30;3.40;;;3.10;;
12267;SDS011;6196;48.398;11.736;2024-02-04T03:33:58;3.13;;;2.83;;
12267;SDS011;6196;48.398;11.736;2024-02-04T03:36:25;4.10;;;2.73;;
12267;SDS011;6196;48.398;11.736;2024-02-04T03:38:53;2.80;;;2.60;;
12267;SDS011;6196;48.398;11.736;2024-02-04T03:41:20;3.20;;;2.90;;
12267;SDS011;6196;48.398;11.736;2024-02-04T03:43:47;3.00;;;2.80;;
12267;SDS011;6196;48.398;11.736;2024-02-04T03:46:15;3.30;;;3.00;;
12267;SDS011;6196;48.398;11.736;2024-02-04T03:48:43;3.33;;;3.03;;
12267;SDS011;6196;48.398;11.736;2024-02-04T03:51:17;3.33;;;3.03;;
12267;SDS011;6196;48.398;11.736;2024-02-04T03:53:45;3.23;;;2.93;;
12267;SDS011;6196;48.398;11.736;2024-02-04T03:56:14;3.20;;;2.90;;
12267;SDS011;6196;48.398;11.736;2024-02-04T03:58:41;3.27;;;2.97;;
12267;SDS011;6196;48.398;11.736;2024-02-04T04:01:11;3.20;;;3.00;;
12267;SDS011;6196;48.398;11.736;2024-02-04T04:03:40;3.20;;;2.90;;
12267;SDS011;6196;48.398;11.736;2024-02-04T04:06:08;3.40;;;3.00;;
12267;SDS011;6196;48.398;11.736;2024-02-04T04:08:37;3.10;;;2.90;;
12267;SDS011;6196;48.398;11.736;2024-02-04T04:11:06;4.17;;;3.67;;
12267;SDS011;6196;48.398;11.736;2024-02-04T04:13:37;4.43;;;3.77;;
12267;SDS011;6196;48.398;11.736;2024-02-04T04:16:04;4.07;;;3.70;;
12267;SDS011;6196;48.398;11.736;2024-02-04T04:18:32;3.57;;;3.27;;
12267;SDS011;6196;48.398;11.736;2024-02-04T04:20:59;5.10;;;3.67;;
12267;SDS011;6196;48.398;11.736;2024-02-04T04:23:26;3.93;;;3.57;;
12267;SDS011;6196;48.398;11.736;2024-02-04T04:25:53;4.77;;;3.60;;
12267;SDS011;6196;48.398;11.736;2024-02-04T04:28:20;4.20;;;3.50;;
12267;SDS011;6196;48.398;11.736;2024-02-04T04:30:47;3.90;;;3.60;;
12267;SDS011;6196;48.398;11.736;2024-02-04T04:33:14;4.00;;;3.63;;
12267;SDS011;6196;48.398;11.736;2024-02-04T04:35:41;4.07;;;3.67;;
12267;SDS011;6196;48.398;11.736;2024-02-04T04:38:08;3.70;;;3.27;;
12267;SDS011;6196;48.398;11.736;2024-02-04T04:40:35;4.30;;;3.87;;
12267;SDS011;6196;48.398;11.736;2024-02-04T04:43:02;4.27;;;3.87;;
12267;SDS011;6196;48.398;11.736;2024-02-04T04:45:29;4.07;;;3.57;;
12267;SDS011;6196;48.398;11.736;2024-02-04T04:47:56;4.00;;;3.60;;
12267;SDS011;6196;48.398;11.736;2024-02-04T04:50:23;4.10;;;3.70;;
12267;SDS011;6196;48.398;11.736;2024-02-04T04:52:50;4.53;;;4.10;;
12267;SDS011;6196;48.398;11.736;2024-02-04T04:55:18;4.10;;;3.70;;
12267;SDS011;6196;48.398;11.736;2024-02-04T04:57:45;4.23;;;3.83;;
12267;SDS011;6196;48.398;11.736;2024-02-04T05:00:13;3.80;;;3.50;;
12267;SDS011;6196;48.398;11.736;2024-02-04T05:02:41;4.67;;;4.17;;
12267;SDS011;6196;48.398;11.736;2024-02-04T05:05:10;4.63;;;4.17;;
12267;SDS011;6196;48.398;11.736;2024-02-04T05:07:40;4.77;;;4.20;;
12267;SDS011;6196;48.398;11.736;2024-02-04T05:10:08;5.20;;;4.03;;
12267;SDS011;6196;48.398;11.736;2024-02-04T05:12:35;4.60;;;4.20;;
12267;SDS011;6196;48.398;11.736;2024-02-04T05:15:04;4.57;;;4.13;;
12267;SDS011;6196;48.398;11.736;2024-02-04T05:17:31;5.07;;;4.50;;
12267;SDS011;6196;48.398;11.736;2024-02-04T05:20:00;4.33;;;3.90;;
12267;SDS011;6196;48.398;11.736;2024-02-04T05:22:28;4.67;;;4.27;;
12267;SDS011;6196;48.398;11.736;2024-02-04T05:24:56;4.83;;;4.40;;
12267;SDS011;6196;48.398;11.736;2024-02-04T05:27:23;4.90;;;4.50;;
12267;SDS011;6196;48.398;11.736;2024-02-04T05:29:50;4.87;;;4.00;;
12267;SDS011;6196;48.398;11.736;2024-02-04T05:32:17;4.70;;;4.10;;
12267;SDS011;6196;48.398;11.736;2024-02-04T05:34:44;5.23;;;4.73;;
12267;SDS011;6196;48.398;11.736;2024-02-04T05:37:11;4.67;;;4.27;;
12267;SDS011;6196;48.398;11.736;2024-02-04T05:39:38;5.30;;;4.63;;
12267;SDS011;6196;48.398;11.736;2024-02-04T05:42:05;4.67;;;4.27;;
12267;SDS011;6196;48.398;11.736;2024-02-04T05:44:32;5.13;;;3.93;;
12267;SDS011;6196;48.398;11.736;2024-02-04T05:46:59;4.50;;;4.10;;
12267;SDS011;6196;48.398;11.736;2024-02-04T05:49:26;4.40;;;4.00;;
12267;SDS011;6196;48.398;11.736;2024-02-04T05:51:53;4.33;;;3.90;;
12267;SDS011;6196;48.398;11.736;2024-02-04T05:54:20;4.00;;;3.60;;
12267;SDS011;6196;48.398;11.736;2024-02-04T05:56:47;4.07;;;3.70;;
12267;SDS011;6196;48.398;11.736;2024-02-04T05:59:13;3.93;;;3.30;;
12267;SDS011;6196;48.398;11.736;2024-02-04T06:01:42;3.80;;;3.30;;
12267;SDS011;6196;48.398;11.736;2024-02-04T06:04:09;4.30;;;3.90;;
12267;SDS011;6196;48.398;11.736;2024-02-04T06:06:36;4.10;;;3.70;;
12267;SDS011;6196;48.398;11.736;2024-02-04T06:09:03;4.20;;;3.80;;
12267;SDS011;6196;48.398;11.736;2024-02-04T06:11:30;4.20;;;3.80;;
12267;SDS011;6196;48.398;11.736;2024-02-04T06:13:57;4.10;;;3.70;;
12267;SDS011;6196;48.398;11.736;2024-02-04T06:16:24;4.03;;;3.63;;
12267;SDS011;6196;48.398;11.736;2024-02-04T06:18:52;4.47;;;3.67;;
12267;SDS011;6196;48.398;11.736;2024-02-04T06:21:22;4.50;;;3.90;;
12267;SDS011;6196;48.398;11.736;2024-02-04T06:23:49;4.00;;;3.60;;
12267;SDS011;6196;48.398;11.736;2024-02-04T06:26:16;4.20;;;3.80;;
12267;SDS011;6196;48.398;11.736;2024-02-04T06:28:43;4.43;;;4.03;;
12267;SDS011;6196;48.398;11.736;2024-02-04T06:31:15;4.17;;;3.77;;
12267;SDS011;6196;48.398;11.736;2024-02-04T06:33:42;4.47;;;3.97;;
12267;SDS011;6196;48.398;11.736;2024-02-04T06:36:09;5.37;;;3.93;;
12267;SDS011;6196;48.398;11.736;2024-02-04T06:38:37;4.40;;;3.93;;
12267;SDS011;6196;48.398;11.736;2024-02-04T06:41:04;4.13;;;3.73;;
12267;SDS011;6196;48.398;11.736;2024-02-04T06:43:31;4.30;;;3.73;;
12267;SDS011;6196;48.398;11.736;2024-02-04T06:46:02;4.70;;;4.20;;
12267;SDS011;6196;48.398;11.736;2024-02-04T06:48:29;5.87;;;3.83;;
12267;SDS011;6196;48.398;11.736;2024-02-04T06:50:56;4.30;;;3.90;;
12267;SDS011;6196;48.398;11.736;2024-02-04T06:53:23;4.73;;;4.10;;
12267;SDS011;6196;48.398;11.736;2024-02-04T06:55:50;4.20;;;3.80;;
12267;SDS011;6196;48.398;11.736;2024-02-04T06:58:17;4.83;;;3.40;;
12267;SDS011;6196;48.398;11.736;2024-02-04T07:00:44;4.40;;;3.97;;
12267;SDS011;6196;48.398;11.736;2024-02-04T07:03:12;4.77;;;3.57;;
12267;SDS011;6196;48.398;11.736;2024-02-04T07:05:40;4.17;;;3.77;;
12267;SDS011;6196;48.398;11.736;2024-02-04T07:08:07;4.20;;;3.57;;
12267;SDS011;6196;48.398;11.736;2024-02-04T07:10:34;3.83;;;3.43;;
12267;SDS011;6196;48.398;11.736;2024-02-04T07:13:01;3.87;;;3.47;;
12267;SDS011;6196;48.398;11.736;2024-02-04T07:15:28;4.37;;;3.37;;
12267;SDS011;6196;48.398;11.736;2024-02-04T07:17:55;4.13;;;3.53;;
12267;SDS011;6196;48.398;11.736;2024-02-04T07:20:22;4.53;;;3.40;;
12267;SDS011;6196;48.398;11.736;2024-02-04T07:22:49;3.50;;;3.20;;
12267;SDS011;6196;48.398;11.736;2024-02-04T07:25:16;3.40;;;3.10;;
12267;SDS011;6196;48.398;11.736;2024-02-04T07:27:42;4.77;;;3.47;;
12267;SDS011;6196;48.398;11.736;2024-02-04T07:30:09;5.17;;;3.17;;
12267;SDS011;6196;48.398;11.736;2024-02-04T07:32:37;3.40;;;3.10;;
12267;SDS011;6196;48.398;11.736;2024-02-04T07:35:05;4.43;;;3.30;;
12267;SDS011;6196;48.398;11.736;2024-02-04T07:37:32;4.83;;;3.63;;
12267;SDS011;6196;48.398;11.736;2024-02-04T07:39:59;4.17;;;3.77;;
12267;SDS011;6196;48.398;11.736;2024-02-04T07:42:27;8.30;;;3.93;;
12267;SDS011;6196;48.398;11.736;2024-02-04T07:44:54;4.40;;;3.40;;
12267;SDS011;6196;48.398;11.736;2024-02-04T07:47:21;7.03;;;4.33;;
12267;SDS011;6196;48.398;11.736;2024-02-04T07:49:48;5.73;;;4.40;;
12267;SDS011;6196;48.398;11.736;2024-02-04T07:52:16;6.10;;;4.50;;
12267;SDS011;6196;48.398;11.736;2024-02-04T07:54:43;4.53;;;4.13;;
12267;SDS011;6196;48.398;11.736;2024-02-04T07:57:10;4.53;;;4.13;;
12267;SDS011;6196;48.398;11.736;2024-02-04T07:59:38;6.00;;;4.50;;
12267;SDS011;6196;48.398;11.736;2024-02-04T08:02:05;6.70;;;4.97;;
12267;SDS011;6196;48.398;11.736;2024-02-04T08:04:33;4.90;;;4.30;;
12267;SDS011;6196;48.398;11.736;2024-02-04T08:07:00;5.43;;;4.80;;
12267;SDS011;6196;48.398;11.736;2024-02-04T08:09:28;4.80;;;4.30;;
12267;SDS011;6196;48.398;11.736;2024-02-04T08:11:55;5.40;;;4.30;;
12267;SDS011;6196;48.398;11.736;2024-02-04T08:14:25;5.50;;;4.37;;
12267;SDS011;6196;48.398;11.736;2024-02-04T08:16:52;5.27;;;4.30;;
12267;SDS011;6196;48.398;11.736;2024-02-04T08:19:19;5.40;;;4.60;;
12267;SDS011;6196;48.398;11.736;2024-02-04T08:21:46;5.43;;;4.53;;
12267;SDS011;6196;48.398;11.736;2024-02-04T08:24:13;6.40;;;4.73;;
12267;SDS011;6196;48.398;11.736;2024-02-04T08:26:40;4.97;;;4.20;;
12267;SDS011;6196;48.398;11.736;2024-02-04T08:29:07;4.57;;;3.93;;
12267;SDS011;6196;48.398;11.736;2024-02-04T08:31:34;4.17;;;3.47;;
12267;SDS011;6196;48.398;11.736;2024-02-04T08:34:01;4.27;;;3.87;;
12267;SDS011;6196;48.398;11.736;2024-02-04T08:36:29;3.97;;;3.57;;
12267;SDS011;6196;48.398;11.736;2024-02-04T08:38:59;6.20;;;3.73;;
12267;SDS011;6196;48.398;11.736;2024-02-04T08:41:26;4.27;;;3.40;;
12267;SDS011;6196;48.398;11.736;2024-02-04T08:43:53;5.63;;;3.63;;
12267;SDS011;6196;48.398;11.736;2024-02-04T08:46:20;3.93;;;3.40;;
12267;SDS011;6196;48.398;11.736;2024-02-04T08:48:47;4.30;;;3.37;;
12267;SDS011;6196;48.398;11.736;2024-02-04T08:51:14;4.13;;;3.27;;
12267;SDS011;6196;48.398;11.736;2024-02-04T08:53:42;3.87;;;3.43;;
12267;SDS011;6196;48.398;11.736;2024-02-04T08:56:09;4.63;;;3.73;;
12267;SDS011;6196;48.398;11.736;2024-02-04T08:58:36;3.50;;;3.20;;
12267;SDS011;6196;48.398;11.736;2024-02-04T09:01:04;3.80;;;3.07;;
12267;SDS011;6196;48.398;11.736;2024-02-04T09:03:32;3.40;;;3.10;;
12267;SDS011;6196;48.398;11.736;2024-02-04T09:06:00;3.93;;;3.07;;
12267;SDS011;6196;48.398;11.736;2024-02-04T09:08:27;3.13;;;2.60;;
12267;SDS011;6196;48.398;11.736;2024-02-04T09:10:54;4.00;;;2.80;;
12267;SDS011;6196;48.398;11.736;2024-02-04T09:13:21;3.23;;;2.93;;
12267;SDS011;6196;48.398;11.736;2024-02-04T09:15:49;2.97;;;2.77;;
12267;SDS011;6196;48.398;11.736;2024-02-04T09:18:16;5.17;;;2.53;;
12267;SDS011;6196;48.398;11.736;2024-02-04T09:20:43;3.03;;;2.27;;
12267;SDS011;6196;48.398;11.736;2024-02-04T09:23:11;4.23;;;2.67;;
12267;SDS011;6196;48.398;11.736;2024-02-04T09:25:38;3.70;;;2.60;;
12267;SDS011;6196;48.398;11.736;2024-02-04T09:28:05;3.73;;;2.40;;
12267;SDS011;6196;48.398;11.736;2024-02-04T09:30:32;2.40;;;2.20;;
12267;SDS011;6196;48.398;11.736;2024-02-04T09:32:59;2.53;;;2.33;;
12267;SDS011;6196;48.398;11.736;2024-02-04T09:35:26;3.60;;;2.77;;
12267;SDS011;6196;48.398;11.736;2024-02-04T09:37:54;2.47;;;2.23;;
12267;SDS011;6196;48.398;11.736;2024-02-04T09:40:21;2.50;;;2.30;;
12267;SDS011;6196;48.398;11.736;2024-02-04T09:42:49;2.90;;;2.20;;
12267;SDS011;6196;48.398;11.736;2024-02-04T09:45:18;3.33;;;2.00;;
12267;SDS011;6196;48.398;11.736;2024-02-04T09:47:45;2.63;;;2.00;;
12267;SDS011;6196;48.398;11.736;2024-02-04T09:50:13;2.53;;;2.10;;
12267;SDS011;6196;48.398;11.736;2024-02-04T09:52:48;2.60;;;2.17;;
12267;SDS011;6196;48.398;11.736;2024-02-04T09:55:17;2.07;;;1.90;;
12267;SDS011;6196;48.398;11.736;2024-02-04T09:57:50;2.40;;;1.93;;
12267;SDS011;6196;48.398;11.736;2024-02-04T10:00:18;2.10;;;1.90;;
12267;SDS011;6196;48.398;11.736;2024-02-04T10:02:49;2.97;;;1.70;;
12267;SDS011;6196;48.398;11.736;2024-02-04T10:05:16;2.03;;;1.77;;
12267;SDS011;6196;48.398;11.736;2024-02-04T10:07:43;2.23;;;1.60;;
12267;SDS011;6196;48.398;11.736;2024-02-04T10:10:10;1.90;;;1.70;;
12267;SDS011;6196;48.398;11.736;2024-02-04T10:12:39;2.10;;;1.40;;
12267;SDS011;6196;48.398;11.736;2024-02-04T10:15:08;2.70;;;1.60;;
12267;SDS011;6196;48.398;11.736;2024-02-04T10:17:35;1.63;;;1.50;;
12267;SDS011;6196;48.398;11.736;2024-02-04T10:20:02;1.57;;;1.47;;
12267;SDS011;6196;48.398;11.736;2024-02-04T10:22:30;2.07;;;1.10;;
12267;SDS011;6196;48.398;11.736;2024-02-04T10:25:09;3.03;;;1.10;;
12267;SDS011;6196;48.398;11.736;2024-02-04T10:27:41;2.43;;;1.30;;
12267;SDS011;6196;48.398;11.736;2024-02-04T10:30:09;1.97;;;1.40;;
12267;SDS011;6196;48.398;11.736;2024-02-04T10:32:37;1.63;;;1.20;;
12267;SDS011;6196;48.398;11.736;2024-02-04T10:35:04;2.40;;;1.17;;
12267;SDS011;6196;48.398;11.736;2024-02-04T10:37:31;2.27;;;1.20;;
12267;SDS011;6196;48.398;11.736;2024-02-04T10:39:58;1.07;;;0.90;;
12267;SDS011;6196;48.398;11.736;2024-02-04T10:42:25;1.40;;;1.10;;
12267;SDS011;6196;48.398;11.736;2024-02-04T10:44:54;1.07;;;0.97;;
12267;SDS011;6196;48.398;11.736;2024-02-04T10:47:22;2.07;;;0.97;;
12267;SDS011;6196;48.398;11.736;2024-02-04T10:49:52;1.40;;;1.00;;
12267;SDS011;6196;48.398;11.736;2024-02-04T10:52:20;0.80;;;0.80;;
12267;SDS011;6196;48.398;11.736;2024-02-04T10:54:49;1.90;;;0.93;;
12267;SDS011;6196;48.398;11.736;2024-02-04T10:57:20;1.60;;;1.00;;
12267;SDS011;6196;48.398;11.736;2024-02-04T10:59:49;1.87;;;1.10;;
12267;SDS011;6196;48.398;11.736;2024-02-04T11:02:19;0.87;;;0.87;;
12267;SDS011;6196;48.398;11.736;2024-02-04T11:04:48;1.20;;;0.83;;
12267;SDS011;6196;48.398;11.736;2024-02-04T11:07:18;2.40;;;0.80;;
12267;SDS011;6196;48.398;11.736;2024-02-04T11:09:47;1.90;;;1.13;;
12267;SDS011;6196;48.398;11.736;2024-02-04T11:12:16;1.00;;;0.90;;
12267;SDS011;6196;48.398;11.736;2024-02-04T11:14:48;2.07;;;1.87;;
12267;SDS011;6196;48.398;11.736;2024-02-04T11:20:15;1.60;;;1.00;;
12267;SDS011;6196;48.398;11.736;2024-02-04T11:25:55;1.87;;;1.20;;
12267;SDS011;6196;48.398;11.736;2024-02-04T11:28:25;3.73;;;2.70;;
12267;SDS011;6196;48.398;11.736;2024-02-04T11:30:53;6.27;;;4.80;;
12267;SDS011;6196;48.398;11.736;2024-02-04T11:33:22;1.43;;;1.30;;
12267;SDS011;6196;48.398;11.736;2024-02-04T11:35:59;1.33;;;1.20;;
12267;SDS011;6196;48.398;11.736;2024-02-04T11:38:31;2.30;;;1.40;;
12267;SDS011;6196;48.398;11.736;2024-02-04T11:41:05;2.77;;;1.30;;
12267;SDS011;6196;48.398;11.736;2024-02-04T11:43:33;6.77;;;4.40;;
12267;SDS011;6196;48.398;11.736;2024-02-04T11:46:04;1.00;;;0.80;;
12267;SDS011;6196;48.398;11.736;2024-02-04T11:48:33;3.13;;;2.70;;
12267;SDS011;6196;48.398;11.736;2024-02-04T11:51:01;3.43;;;2.03;;
12267;SDS011;6196;48.398;11.736;2024-02-04T11:53:31;1.27;;;0.90;;
12267;SDS011;6196;48.398;11.736;2024-02-04T11:56:02;1.53;;;0.80;;
12267;SDS011;6196;48.398;11.736;2024-02-04T11:58:30;3.13;;;2.87;;
12267;SDS011;6196;48.398;11.736;2024-02-04T12:00:58;0.90;;;0.80;;
12267;SDS011;6196;48.398;11.736;2024-02-04T12:03:31;1.97;;;1.20;;
12267;SDS011;6196;48.398;11.736;2024-02-04T12:06:00;1.67;;;0.90;;
12267;SDS011;6196;48.398;11.736;2024-02-04T12:08:30;2.60;;;1.30;;
12267;SDS011;6196;48.398;11.736;2024-02-04T12:10:59;1.00;;;0.70;;
12267;SDS011;6196;48.398;11.736;2024-02-04T12:13:28;1.57;;;0.80;;
12267;SDS011;6196;48.398;11.736;2024-02-04T12:15:55;1.93;;;0.90;;
12267;SDS011;6196;48.398;11.736;2024-02-04T12:18:22;0.90;;;0.90;;
12267;SDS011;6196;48.398;11.736;2024-02-04T12:20:49;3.70;;;1.07;;
12267;SDS011;6196;48.398;11.736;2024-02-04T12:23:17;1.20;;;0.90;;
12267;SDS011;6196;48.398;11.736;2024-02-04T12:25:45;1.47;;;1.03;;
12267;SDS011;6196;48.398;11.736;2024-02-04T12:28:12;2.20;;;0.90;;
12267;SDS011;6196;48.398;11.736;2024-02-04T12:30:40;0.90;;;0.80;;
12267;SDS011;6196;48.398;11.736;2024-02-04T12:33:21;1.67;;;0.80;;
12267;SDS011;6196;48.398;11.736;2024-02-04T12:35:49;0.90;;;0.90;;
12267;SDS011;6196;48.398;11.736;2024-02-04T12:38:18;1.40;;;1.00;;
12267;SDS011;6196;48.398;11.736;2024-02-04T12:40:45;1.50;;;1.00;;
12267;SDS011;6196;48.398;11.736;2024-02-04T12:43:12;1.20;;;1.00;;
12267;SDS011;6196;48.398;11.736;2024-02-04T12:45:39;3.53;;;1.10;;
12267;SDS011;6196;48.398;11.736;2024-02-04T12:48:06;2.50;;;1.00;;
12267;SDS011;6196;48.398;11.736;2024-02-04T12:50:36;1.20;;;0.97;;
12267;SDS011;6196;48.398;11.736;2024-02-04T12:53:08;1.50;;;0.80;;
12267;SDS011;6196;48.398;11.736;2024-02-04T12:55:39;1.10;;;1.00;;
12267;SDS011;6196;48.398;11.736;2024-02-04T12:58:12;1.47;;;1.10;;
12267;SDS011;6196;48.398;11.736;2024-02-04T13:00:44;1.50;;;0.73;;
12267;SDS011;6196;48.398;11.736;2024-02-04T13:03:14;1.50;;;0.97;;
12267;SDS011;6196;48.398;11.736;2024-02-04T13:05:42;1.10;;;0.90;;
12267;SDS011;6196;48.398;11.736;2024-02-04T13:08:09;3.00;;;1.20;;
12267;SDS011;6196;48.398;11.736;2024-02-04T13:10:36;1.90;;;1.00;;
12267;SDS011;6196;48.398;11.736;2024-02-04T13:13:05;1.03;;;0.97;;
12267;SDS011;6196;48.398;11.736;2024-02-04T13:15:39;1.87;;;1.00;;
12267;SDS011;6196;48.398;11.736;2024-02-04T13:18:09;1.20;;;0.90;;
12267;SDS011;6196;48.398;11.736;2024-02-04T13:20:37;1.67;;;1.23;;
12267;SDS011;6196;48.398;11.736;2024-02-04T13:23:07;1.50;;;0.87;;
12267;SDS011;6196;48.398;11.736;2024-02-04T13:25:34;2.43;;;0.87;;
12267;SDS011;6196;48.398;11.736;2024-02-04T13:28:02;3.80;;;1.30;;
12267;SDS011;6196;48.398;11.736;2024-02-04T13:30:30;2.50;;;1.30;;
12267;SDS011;6196;48.398;11.736;2024-02-04T13:32:57;1.50;;;1.10;;
12267;SDS011;6196;48.398;11.736;2024-02-04T13:35:24;1.83;;;1.43;;
12267;SDS011;6196;48.398;11.736;2024-02-04T13:37:52;1.37;;;1.23;;
12267;SDS011;6196;48.398;11.736;2024-02-04T13:40:21;2.83;;;1.10;;
12267;SDS011;6196;48.398;11.736;2024-02-04T13:42:50;1.90;;;1.40;;
12267;SDS011;6196;48.398;11.736;2024-02-04T13:45:17;3.37;;;1.07;;
12267;SDS011;6196;48.398;11.736;2024-02-04T13:47:44;1.90;;;1.30;;
12267;SDS011;6196;48.398;11.736;2024-02-04T13:50:14;2.30;;;1.30;;
12267;SDS011;6196;48.398;11.736;2024-02-04T13:52:41;3.47;;;1.50;;
12267;SDS011;6196;48.398;11.736;2024-02-04T13:55:08;1.80;;;1.50;;
12267;SDS011;6196;48.398;11.736;2024-02-04T13:57:35;1.80;;;1.30;;
12267;SDS011;6196;48.398;11.736;2024-02-04T14:00:03;2.67;;;1.93;;
12267;SDS011;6196;48.398;11.736;2024-02-04T14:02:33;3.87;;;1.57;;
12267;SDS011;6196;48.398;11.736;2024-02-04T14:05:00;2.57;;;2.00;;
12267;SDS011;6196;48.398;11.736;2024-02-04T14:07:28;2.83;;;1.50;;
12267;SDS011;6196;48.398;11.736;2024-02-04T14:09:55;4.70;;;2.27;;
12267;SDS011;6196;48.398;11.736;2024-02-04T14:12:22;1.60;;;1.50;;
12267;SDS011;6196;48.398;11.736;2024-02-04T14:14:50;4.53;;;2.00;;
12267;SDS011;6196;48.398;11.736;2024-02-04T14:17:17;1.87;;;1.60;;
12267;SDS011;6196;48.398;11.736;2024-02-04T14:19:44;2.30;;;1.53;;
12267;SDS011;6196;48.398;11.736;2024-02-04T14:22:15;1.60;;;1.47;;
12267;SDS011;6196;48.398;11.736;2024-02-04T14:24:44;1.50;;;1.40;;
12267;SDS011;6196;48.398;11.736;2024-02-04T14:27:12;2.70;;;1.60;;
12267;SDS011;6196;48.398;11.736;2024-02-04T14:29:39;4.37;;;1.80;;
12267;SDS011;6196;48.398;11.736;2024-02-04T14:32:06;2.03;;;1.33;;
12267;SDS011;6196;48.398;11.736;2024-02-04T14:34:34;2.87;;;1.70;;
12267;SDS011;6196;48.398;11.736;2024-02-04T14:37:01;2.40;;;1.50;;
12267;SDS011;6196;48.398;11.736;2024-02-04T14:39:28;1.77;;;1.40;;
12267;SDS011;6196;48.398;11.736;2024-02-04T14:41:57;2.37;;;1.53;;
12267;SDS011;6196;48.398;11.736;2024-02-04T14:44:25;2.57;;;1.70;;
12267;SDS011;6196;48.398;11.736;2024-02-04T14:46:51;1.97;;;1.50;;
12267;SDS011;6196;48.398;11.736;2024-02-04T14:49:19;2.23;;;1.47;;
12267;SDS011;6196;48.398;11.736;2024-02-04T14:51:46;2.67;;;1.50;;
12267;SDS011;6196;48.398;11.736;2024-02-04T14:54:13;2.20;;;1.50;;
12267;SDS011;6196;48.398;11.736;2024-02-04T14:56:40;2.10;;;1.50;;
12267;SDS011;6196;48.398;11.736;2024-02-04T14:59:09;3.23;;;1.60;;
12267;SDS011;6196;48.398;11.736;2024-02-04T15:01:48;2.10;;;1.50;;
12267;SDS011;6196;48.398;11.736;2024-02-04T15:04:17;1.93;;;1.30;;
12267;SDS011;6196;48.398;11.736;2024-02-04T15:06:44;2.67;;;1.50;;